EBBR/BRU METAR and TAF weather

Enter ICAO airport designator
Station Type Date Time Source
EBBR METAR 2019/09/20 20:20 UTC NOAA

EBBR 202020Z 09004KT CAVOK 13/04 Q1023 NOSIG


Station Type Date Time Source
EBBR Decoded METAR 2019/09/20 20:20 UTC NOAA

Bruxelles National, Belgium (EBBR) 50-54N 004-32E 58M
Sep 20, 2019 - 04:20 PM EDT / 2019.09.20 2020 UTC
Wind: from the E (090 degrees) at 5 MPH (4 KT):0
Visibility: greater than 7 mile(s):0
Temperature: 55 F (13 C)
Dew Point: 39 F (4 C)
Relative Humidity: 54%
Pressure (altimeter): 30.21 in. Hg (1023 hPa)
ob: EBBR 202020Z 09004KT CAVOK 13/04 Q1023 NOSIG
cycle: 20

Station Type Date Time Source
EBBR TAF 2019/09/20 18:29 UTC NOAA

TAF EBBR 201707Z 2018/2124 10007KT CAVOK

Example: see airport list